Sanya Phoenix International Airport
ZJSY : now visible

Airfield :











YOU CAN JOIN US ON...

 
LOGIN :

Register | Disclaimer

   EN    FR    IT 

 









Legend :    VFR   Marginal VFR   IFR   Intensive IFR   Very Intensive IFR
Visi :
Ceiling :
>= 8 km
>= 3000ft
5 to 8 km
1000 to 3000 ft
1500m to 5 km
500 to 1000 ft
800 to 1500m
200 to 500 ft
< 800m
< 200 ft
Symbols :   Thunderstorms  Fog  Heavy snow  Heavy precipitations  Wind > 20 kt






- Airport Elevation : 92 ft
- IATA code : SYX


ZJSY - Sanya Phoenix International

CURRENT METAR :
  • 161100Z 10004MPS 9999 FEW020 SCT060 29/26 Q1003 NOSIG

EXPIRED METARs :
  • 161000Z 09004MPS 9999 SCT020 30/26 Q1003 NOSIG
  • 160900Z 10003MPS 070V130 9999 SCT020 SCT066 31/27 Q1003 NOSIG
  • 160800Z 11003MPS 080V140 9999 FEW020 SCT040 BKN066 30/26 Q1003 NOSIG
  • 160700Z 10003MPS 060V160 9999 SCT020 FEW026CB SCT040 30/26 Q1004 BECMG AT0740 SCT020 FEW026TCU

TAF TAF ZJSY
Valid from the 16 at 12:00 until the 17 at 12:00 UTC


160904Z 1612/1712 09004MPS 9999 SCT020 TX32/1706Z TN26/1621Z
TEMPO 1620/1702 2800 TSRA SCT016 FEW025CB BKN040
ZJSA FIR / Asia



MET'MAP, your aeronautical weather chart ! - Copyright ORBIFLY December 2007 - Disclaimer

ORBIFLY MET'MAP TEAM :

Programming & Development : Alexandra Zaïnal
Original concept : Baudouin d'Aumeries
Technical & hardware support : Manuel Goepfert
Assistance : Marc-Olivier Méhu




SOURCES & CREDITS :

   NOAA       Earth
Advisory